sensor_id;sensor_type;location;lat;lon;timestamp;temperature;humidity
61398;DHT22;47267;48.130;-2.040;2023-03-23T00:01:10;20.20;51.80
61398;DHT22;47267;48.130;-2.040;2023-03-23T00:03:36;20.10;51.80
61398;DHT22;47267;48.130;-2.040;2023-03-23T00:06:02;20.20;52.40
61398;DHT22;47267;48.130;-2.040;2023-03-23T00:08:31;20.20;51.80
61398;DHT22;47267;48.130;-2.040;2023-03-23T00:10:57;20.10;52.40
61398;DHT22;47267;48.130;-2.040;2023-03-23T00:13:27;20.10;51.80
61398;DHT22;47267;48.130;-2.040;2023-03-23T00:15:53;20.10;51.70
61398;DHT22;47267;48.130;-2.040;2023-03-23T00:18:20;20.10;51.80
61398;DHT22;47267;48.130;-2.040;2023-03-23T00:20:50;20.10;51.70
61398;DHT22;47267;48.130;-2.040;2023-03-23T00:23:17;20.10;51.80
61398;DHT22;47267;48.130;-2.040;2023-03-23T00:25:51;20.10;51.70
61398;DHT22;47267;48.130;-2.040;2023-03-23T00:28:23;20.10;51.80
61398;DHT22;47267;48.130;-2.040;2023-03-23T00:31:04;20.10;51.80
61398;DHT22;47267;48.130;-2.040;2023-03-23T00:33:33;20.10;51.80
61398;DHT22;47267;48.130;-2.040;2023-03-23T00:36:03;20.10;51.80
61398;DHT22;47267;48.130;-2.040;2023-03-23T00:38:30;20.10;51.70
61398;DHT22;47267;48.130;-2.040;2023-03-23T00:40:55;20.10;51.80
61398;DHT22;47267;48.130;-2.040;2023-03-23T00:43:23;20.10;51.80
61398;DHT22;47267;48.130;-2.040;2023-03-23T00:45:55;20.10;51.70
61398;DHT22;47267;48.130;-2.040;2023-03-23T00:48:22;20.10;51.80
61398;DHT22;47267;48.130;-2.040;2023-03-23T00:50:48;20.10;51.80
61398;DHT22;47267;48.130;-2.040;2023-03-23T00:53:15;20.00;51.70
61398;DHT22;47267;48.130;-2.040;2023-03-23T00:55:42;20.10;51.80
61398;DHT22;47267;48.130;-2.040;2023-03-23T00:58:08;20.00;51.70
61398;DHT22;47267;48.130;-2.040;2023-03-23T01:00:35;20.10;51.80
61398;DHT22;47267;48.130;-2.040;2023-03-23T01:03:01;20.00;51.80
61398;DHT22;47267;48.130;-2.040;2023-03-23T01:05:27;20.00;51.70
61398;DHT22;47267;48.130;-2.040;2023-03-23T01:08:01;20.00;51.70
61398;DHT22;47267;48.130;-2.040;2023-03-23T01:10:27;20.00;51.70
61398;DHT22;47267;48.130;-2.040;2023-03-23T01:12:53;20.00;51.70
61398;DHT22;47267;48.130;-2.040;2023-03-23T01:15:19;20.10;51.80
61398;DHT22;47267;48.130;-2.040;2023-03-23T01:17:46;20.10;52.40
61398;DHT22;47267;48.130;-2.040;2023-03-23T01:20:14;20.00;51.80
61398;DHT22;47267;48.130;-2.040;2023-03-23T01:22:41;20.00;51.70
61398;DHT22;47267;48.130;-2.040;2023-03-23T01:25:08;20.00;51.70
61398;DHT22;47267;48.130;-2.040;2023-03-23T01:27:34;20.00;51.70
61398;DHT22;47267;48.130;-2.040;2023-03-23T01:29:59;20.00;51.70
61398;DHT22;47267;48.130;-2.040;2023-03-23T01:32:26;20.00;51.80
61398;DHT22;47267;48.130;-2.040;2023-03-23T01:34:51;20.00;51.70
61398;DHT22;47267;48.130;-2.040;2023-03-23T01:37:20;20.00;51.70
61398;DHT22;47267;48.130;-2.040;2023-03-23T01:39:52;20.00;51.70
61398;DHT22;47267;48.130;-2.040;2023-03-23T01:42:30;20.00;51.70
61398;DHT22;47267;48.130;-2.040;2023-03-23T01:45:31;20.00;51.70
61398;DHT22;47267;48.130;-2.040;2023-03-23T01:48:22;20.00;51.70
61398;DHT22;47267;48.130;-2.040;2023-03-23T01:53:17;20.00;51.70
61398;DHT22;47267;48.130;-2.040;2023-03-23T01:55:44;20.00;51.70
61398;DHT22;47267;48.130;-2.040;2023-03-23T01:58:14;20.00;51.70
61398;DHT22;47267;48.130;-2.040;2023-03-23T02:00:42;20.00;51.70
61398;DHT22;47267;48.130;-2.040;2023-03-23T02:03:08;20.00;51.70
61398;DHT22;47267;48.130;-2.040;2023-03-23T02:05:40;20.00;51.70
61398;DHT22;47267;48.130;-2.040;2023-03-23T02:08:06;19.90;51.70
61398;DHT22;47267;48.130;-2.040;2023-03-23T02:10:34;20.00;51.70
61398;DHT22;47267;48.130;-2.040;2023-03-23T02:13:02;19.90;51.70
61398;DHT22;47267;48.130;-2.040;2023-03-23T02:24:24;20.00;51.70
61398;DHT22;47267;48.130;-2.040;2023-03-23T02:29:54;20.00;51.70
61398;DHT22;47267;48.130;-2.040;2023-03-23T02:35:28;19.90;51.70
61398;DHT22;47267;48.130;-2.040;2023-03-23T02:38:01;19.90;51.70
61398;DHT22;47267;48.130;-2.040;2023-03-23T02:40:35;20.00;51.70
61398;DHT22;47267;48.130;-2.040;2023-03-23T02:43:03;19.90;51.70
61398;DHT22;47267;48.130;-2.040;2023-03-23T02:45:33;19.90;51.70
61398;DHT22;47267;48.130;-2.040;2023-03-23T02:48:01;19.90;51.70
61398;DHT22;47267;48.130;-2.040;2023-03-23T02:50:28;19.90;51.70
61398;DHT22;47267;48.130;-2.040;2023-03-23T02:52:55;19.90;51.70
61398;DHT22;47267;48.130;-2.040;2023-03-23T02:55:24;19.90;51.70
61398;DHT22;47267;48.130;-2.040;2023-03-23T02:57:52;19.90;51.70
61398;DHT22;47267;48.130;-2.040;2023-03-23T03:00:18;19.90;51.70
61398;DHT22;47267;48.130;-2.040;2023-03-23T03:02:50;19.90;51.70
61398;DHT22;47267;48.130;-2.040;2023-03-23T03:08:24;19.90;51.70
61398;DHT22;47267;48.130;-2.040;2023-03-23T03:14:12;19.90;51.70
61398;DHT22;47267;48.130;-2.040;2023-03-23T03:21:36;19.90;51.70
61398;DHT22;47267;48.130;-2.040;2023-03-23T03:24:03;19.90;51.70
61398;DHT22;47267;48.130;-2.040;2023-03-23T03:26:31;19.90;51.70
61398;DHT22;47267;48.130;-2.040;2023-03-23T03:29:00;20.00;51.70
61398;DHT22;47267;48.130;-2.040;2023-03-23T03:31:30;20.00;51.70
61398;DHT22;47267;48.130;-2.040;2023-03-23T03:33:57;20.00;51.80
61398;DHT22;47267;48.130;-2.040;2023-03-23T03:36:29;20.00;51.80
61398;DHT22;47267;48.130;-2.040;2023-03-23T03:39:02;19.90;51.70
61398;DHT22;47267;48.130;-2.040;2023-03-23T03:41:33;19.90;51.70
61398;DHT22;47267;48.130;-2.040;2023-03-23T03:44:00;19.90;51.70
61398;DHT22;47267;48.130;-2.040;2023-03-23T03:46:26;19.90;51.70
61398;DHT22;47267;48.130;-2.040;2023-03-23T03:48:55;19.90;52.30
61398;DHT22;47267;48.130;-2.040;2023-03-23T03:51:25;19.90;51.70
61398;DHT22;47267;48.130;-2.040;2023-03-23T03:53:51;19.90;51.70
61398;DHT22;47267;48.130;-2.040;2023-03-23T03:56:16;19.90;51.70
61398;DHT22;47267;48.130;-2.040;2023-03-23T03:58:42;19.90;51.70
61398;DHT22;47267;48.130;-2.040;2023-03-23T04:01:09;20.00;51.70
61398;DHT22;47267;48.130;-2.040;2023-03-23T04:03:39;20.00;51.70
61398;DHT22;47267;48.130;-2.040;2023-03-23T04:06:05;20.00;51.80
61398;DHT22;47267;48.130;-2.040;2023-03-23T04:08:31;19.90;51.70
61398;DHT22;47267;48.130;-2.040;2023-03-23T04:10:58;20.00;51.80
61398;DHT22;47267;48.130;-2.040;2023-03-23T04:13:23;20.00;51.70
61398;DHT22;47267;48.130;-2.040;2023-03-23T04:15:49;20.00;51.70
61398;DHT22;47267;48.130;-2.040;2023-03-23T04:18:16;20.00;51.80
61398;DHT22;47267;48.130;-2.040;2023-03-23T04:20:47;20.00;51.70
61398;DHT22;47267;48.130;-2.040;2023-03-23T04:23:14;20.00;51.70
61398;DHT22;47267;48.130;-2.040;2023-03-23T04:25:46;20.00;51.70
61398;DHT22;47267;48.130;-2.040;2023-03-23T04:28:13;20.00;51.80
61398;DHT22;47267;48.130;-2.040;2023-03-23T04:30:38;20.00;51.70
61398;DHT22;47267;48.130;-2.040;2023-03-23T04:33:09;20.00;51.70
61398;DHT22;47267;48.130;-2.040;2023-03-23T04:35:40;20.00;51.80
61398;DHT22;47267;48.130;-2.040;2023-03-23T04:38:07;20.00;51.80
61398;DHT22;47267;48.130;-2.040;2023-03-23T04:40:38;20.00;51.70
61398;DHT22;47267;48.130;-2.040;2023-03-23T04:43:05;20.00;51.90
61398;DHT22;47267;48.130;-2.040;2023-03-23T04:45:32;20.00;51.70
61398;DHT22;47267;48.130;-2.040;2023-03-23T04:47:59;20.00;51.70
61398;DHT22;47267;48.130;-2.040;2023-03-23T04:50:28;20.00;51.70
61398;DHT22;47267;48.130;-2.040;2023-03-23T04:52:57;20.00;51.80
61398;DHT22;47267;48.130;-2.040;2023-03-23T04:55:25;20.00;51.70
61398;DHT22;47267;48.130;-2.040;2023-03-23T04:57:51;20.00;51.70
61398;DHT22;47267;48.130;-2.040;2023-03-23T05:00:18;20.00;51.80
61398;DHT22;47267;48.130;-2.040;2023-03-23T05:02:47;20.00;51.70
61398;DHT22;47267;48.130;-2.040;2023-03-23T05:05:17;20.00;51.80
61398;DHT22;47267;48.130;-2.040;2023-03-23T05:07:43;20.00;51.70
61398;DHT22;47267;48.130;-2.040;2023-03-23T05:10:11;20.00;51.80
61398;DHT22;47267;48.130;-2.040;2023-03-23T05:12:37;20.00;51.70
61398;DHT22;47267;48.130;-2.040;2023-03-23T05:15:04;20.00;51.70
61398;DHT22;47267;48.130;-2.040;2023-03-23T05:17:31;20.00;51.70
61398;DHT22;47267;48.130;-2.040;2023-03-23T05:19:57;20.00;51.70
61398;DHT22;47267;48.130;-2.040;2023-03-23T05:22:27;20.00;51.70
61398;DHT22;47267;48.130;-2.040;2023-03-23T05:24:52;20.00;51.80
61398;DHT22;47267;48.130;-2.040;2023-03-23T05:27:19;20.00;51.70
61398;DHT22;47267;48.130;-2.040;2023-03-23T05:29:46;20.00;51.80
61398;DHT22;47267;48.130;-2.040;2023-03-23T05:32:15;20.00;51.80
61398;DHT22;47267;48.130;-2.040;2023-03-23T05:34:41;20.00;51.70
61398;DHT22;47267;48.130;-2.040;2023-03-23T05:37:09;20.00;51.80
61398;DHT22;47267;48.130;-2.040;2023-03-23T05:39:35;19.90;51.70
61398;DHT22;47267;48.130;-2.040;2023-03-23T05:42:02;20.00;51.80
61398;DHT22;47267;48.130;-2.040;2023-03-23T05:44:28;20.00;51.80
61398;DHT22;47267;48.130;-2.040;2023-03-23T05:46:54;19.90;51.70
61398;DHT22;47267;48.130;-2.040;2023-03-23T05:49:20;20.00;51.80
61398;DHT22;47267;48.130;-2.040;2023-03-23T05:51:46;19.90;51.70
61398;DHT22;47267;48.130;-2.040;2023-03-23T05:54:13;20.00;51.80
61398;DHT22;47267;48.130;-2.040;2023-03-23T05:56:40;20.00;51.80
61398;DHT22;47267;48.130;-2.040;2023-03-23T05:59:06;20.00;51.80
61398;DHT22;47267;48.130;-2.040;2023-03-23T06:01:32;20.00;51.80
61398;DHT22;47267;48.130;-2.040;2023-03-23T06:03:58;20.00;51.80
61398;DHT22;47267;48.130;-2.040;2023-03-23T06:06:26;19.90;51.70
61398;DHT22;47267;48.130;-2.040;2023-03-23T06:08:52;20.00;51.80
61398;DHT22;47267;48.130;-2.040;2023-03-23T06:11:18;19.90;51.70
61398;DHT22;47267;48.130;-2.040;2023-03-23T06:13:44;19.90;51.70
61398;DHT22;47267;48.130;-2.040;2023-03-23T06:16:10;20.00;51.80
61398;DHT22;47267;48.130;-2.040;2023-03-23T06:18:36;19.90;51.80
61398;DHT22;47267;48.130;-2.040;2023-03-23T06:21:05;20.00;51.90
61398;DHT22;47267;48.130;-2.040;2023-03-23T06:23:31;20.00;51.80
61398;DHT22;47267;48.130;-2.040;2023-03-23T06:25:59;19.90;51.80
61398;DHT22;47267;48.130;-2.040;2023-03-23T06:28:26;19.90;51.80
61398;DHT22;47267;48.130;-2.040;2023-03-23T06:30:52;20.00;51.80
61398;DHT22;47267;48.130;-2.040;2023-03-23T06:33:18;19.90;51.80
61398;DHT22;47267;48.130;-2.040;2023-03-23T06:35:44;20.00;51.80
61398;DHT22;47267;48.130;-2.040;2023-03-23T06:38:10;20.00;51.90
61398;DHT22;47267;48.130;-2.040;2023-03-23T06:40:37;20.00;51.80
61398;DHT22;47267;48.130;-2.040;2023-03-23T06:43:03;20.00;51.80
61398;DHT22;47267;48.130;-2.040;2023-03-23T06:45:30;20.00;51.90
61398;DHT22;47267;48.130;-2.040;2023-03-23T06:47:56;20.00;51.80
61398;DHT22;47267;48.130;-2.040;2023-03-23T06:50:22;20.00;51.90
61398;DHT22;47267;48.130;-2.040;2023-03-23T06:52:49;20.00;51.90
61398;DHT22;47267;48.130;-2.040;2023-03-23T06:55:15;20.00;51.80
61398;DHT22;47267;48.130;-2.040;2023-03-23T06:57:43;20.00;51.90
61398;DHT22;47267;48.130;-2.040;2023-03-23T07:00:10;20.00;51.90
61398;DHT22;47267;48.130;-2.040;2023-03-23T07:02:42;20.00;51.90
61398;DHT22;47267;48.130;-2.040;2023-03-23T07:05:09;20.00;51.90
61398;DHT22;47267;48.130;-2.040;2023-03-23T07:07:36;20.00;51.90
61398;DHT22;47267;48.130;-2.040;2023-03-23T07:10:03;20.00;51.90
61398;DHT22;47267;48.130;-2.040;2023-03-23T07:12:29;20.00;51.90
61398;DHT22;47267;48.130;-2.040;2023-03-23T07:14:55;20.00;51.90
61398;DHT22;47267;48.130;-2.040;2023-03-23T07:17:21;20.00;51.90
61398;DHT22;47267;48.130;-2.040;2023-03-23T07:19:46;20.00;51.90
61398;DHT22;47267;48.130;-2.040;2023-03-23T07:22:12;20.00;51.90
61398;DHT22;47267;48.130;-2.040;2023-03-23T07:24:38;20.00;51.90
61398;DHT22;47267;48.130;-2.040;2023-03-23T07:27:03;20.00;51.90
61398;DHT22;47267;48.130;-2.040;2023-03-23T07:29:29;20.00;51.90
61398;DHT22;47267;48.130;-2.040;2023-03-23T07:31:55;20.00;51.90
61398;DHT22;47267;48.130;-2.040;2023-03-23T07:34:21;20.00;51.90
61398;DHT22;47267;48.130;-2.040;2023-03-23T07:36:47;20.00;51.90
61398;DHT22;47267;48.130;-2.040;2023-03-23T07:39:14;20.00;51.90
61398;DHT22;47267;48.130;-2.040;2023-03-23T07:41:39;20.00;51.90
61398;DHT22;47267;48.130;-2.040;2023-03-23T07:44:05;20.00;51.90
61398;DHT22;47267;48.130;-2.040;2023-03-23T07:46:32;20.00;51.90
61398;DHT22;47267;48.130;-2.040;2023-03-23T07:48:58;20.00;52.00
61398;DHT22;47267;48.130;-2.040;2023-03-23T07:51:24;20.00;52.00
61398;DHT22;47267;48.130;-2.040;2023-03-23T07:53:50;20.00;51.90
61398;DHT22;47267;48.130;-2.040;2023-03-23T07:56:16;20.00;52.00
61398;DHT22;47267;48.130;-2.040;2023-03-23T07:58:45;20.00;52.00
61398;DHT22;47267;48.130;-2.040;2023-03-23T08:01:11;20.00;52.00
61398;DHT22;47267;48.130;-2.040;2023-03-23T08:03:37;20.00;52.00
61398;DHT22;47267;48.130;-2.040;2023-03-23T08:06:04;20.00;52.00
61398;DHT22;47267;48.130;-2.040;2023-03-23T08:08:30;20.00;52.00
61398;DHT22;47267;48.130;-2.040;2023-03-23T08:10:57;20.00;52.00
61398;DHT22;47267;48.130;-2.040;2023-03-23T08:13:22;20.00;52.00
61398;DHT22;47267;48.130;-2.040;2023-03-23T08:15:48;20.00;52.00
61398;DHT22;47267;48.130;-2.040;2023-03-23T08:18:15;20.00;52.00
61398;DHT22;47267;48.130;-2.040;2023-03-23T08:20:41;20.00;52.00
61398;DHT22;47267;48.130;-2.040;2023-03-23T08:23:07;20.00;52.10
61398;DHT22;47267;48.130;-2.040;2023-03-23T08:25:33;20.00;52.00
61398;DHT22;47267;48.130;-2.040;2023-03-23T08:28:00;20.00;52.00
61398;DHT22;47267;48.130;-2.040;2023-03-23T08:30:27;20.00;52.00
61398;DHT22;47267;48.130;-2.040;2023-03-23T08:32:56;20.00;52.00
61398;DHT22;47267;48.130;-2.040;2023-03-23T08:35:22;20.00;52.00
61398;DHT22;47267;48.130;-2.040;2023-03-23T08:37:49;20.00;52.00
61398;DHT22;47267;48.130;-2.040;2023-03-23T08:40:20;20.00;52.00
61398;DHT22;47267;48.130;-2.040;2023-03-23T08:42:48;20.00;52.10
61398;DHT22;47267;48.130;-2.040;2023-03-23T08:45:18;20.00;52.00
61398;DHT22;47267;48.130;-2.040;2023-03-23T08:47:44;20.00;52.10
61398;DHT22;47267;48.130;-2.040;2023-03-23T08:50:16;20.00;52.10
61398;DHT22;47267;48.130;-2.040;2023-03-23T08:52:42;20.10;52.20
61398;DHT22;47267;48.130;-2.040;2023-03-23T08:55:09;20.00;52.10
61398;DHT22;47267;48.130;-2.040;2023-03-23T08:57:36;20.00;52.10
61398;DHT22;47267;48.130;-2.040;2023-03-23T09:00:04;20.10;52.10
61398;DHT22;47267;48.130;-2.040;2023-03-23T09:02:40;20.00;52.10
61398;DHT22;47267;48.130;-2.040;2023-03-23T09:05:06;20.00;52.00
61398;DHT22;47267;48.130;-2.040;2023-03-23T09:07:32;20.00;52.00
61398;DHT22;47267;48.130;-2.040;2023-03-23T09:09:58;20.00;52.10
61398;DHT22;47267;48.130;-2.040;2023-03-23T09:12:24;20.10;52.10
61398;DHT22;47267;48.130;-2.040;2023-03-23T09:14:49;20.00;52.10
61398;DHT22;47267;48.130;-2.040;2023-03-23T09:17:15;20.00;52.70
61398;DHT22;47267;48.130;-2.040;2023-03-23T09:19:41;20.00;52.00
61398;DHT22;47267;48.130;-2.040;2023-03-23T09:22:07;20.00;52.10
61398;DHT22;47267;48.130;-2.040;2023-03-23T09:24:33;20.00;52.00
61398;DHT22;47267;48.130;-2.040;2023-03-23T09:26:59;20.00;52.00
61398;DHT22;47267;48.130;-2.040;2023-03-23T09:29:26;20.00;52.00
61398;DHT22;47267;48.130;-2.040;2023-03-23T09:31:53;20.00;52.10
61398;DHT22;47267;48.130;-2.040;2023-03-23T09:34:19;20.00;52.00
61398;DHT22;47267;48.130;-2.040;2023-03-23T09:36:45;20.00;52.10
61398;DHT22;47267;48.130;-2.040;2023-03-23T09:39:11;20.00;52.00
61398;DHT22;47267;48.130;-2.040;2023-03-23T09:47:32;20.00;52.00
61398;DHT22;47267;48.130;-2.040;2023-03-23T09:50:08;20.00;52.00
61398;DHT22;47267;48.130;-2.040;2023-03-23T09:52:42;20.00;52.00
61398;DHT22;47267;48.130;-2.040;2023-03-23T09:55:12;19.90;52.00
61398;DHT22;47267;48.130;-2.040;2023-03-23T09:57:49;20.00;52.00
61398;DHT22;47267;48.130;-2.040;2023-03-23T10:00:33;20.00;52.10
61398;DHT22;47267;48.130;-2.040;2023-03-23T10:03:16;19.90;52.00
61398;DHT22;47267;48.130;-2.040;2023-03-23T10:05:45;20.00;52.10
61398;DHT22;47267;48.130;-2.040;2023-03-23T10:08:24;19.90;52.00
61398;DHT22;47267;48.130;-2.040;2023-03-23T10:13:47;19.90;52.00
61398;DHT22;47267;48.130;-2.040;2023-03-23T10:16:19;19.90;52.00
61398;DHT22;47267;48.130;-2.040;2023-03-23T10:21:22;19.90;52.10
61398;DHT22;47267;48.130;-2.040;2023-03-23T10:24:00;20.00;52.10
61398;DHT22;47267;48.130;-2.040;2023-03-23T10:26:52;19.90;52.10
61398;DHT22;47267;48.130;-2.040;2023-03-23T10:29:36;19.90;52.10
61398;DHT22;47267;48.130;-2.040;2023-03-23T10:32:41;19.90;52.10
61398;DHT22;47267;48.130;-2.040;2023-03-23T10:35:14;19.90;52.10
61398;DHT22;47267;48.130;-2.040;2023-03-23T10:37:50;19.90;52.10
61398;DHT22;47267;48.130;-2.040;2023-03-23T10:40:22;19.90;52.10
61398;DHT22;47267;48.130;-2.040;2023-03-23T10:42:52;20.00;52.20
61398;DHT22;47267;48.130;-2.040;2023-03-23T10:45:29;20.00;52.20
61398;DHT22;47267;48.130;-2.040;2023-03-23T10:50:37;19.90;52.10
61398;DHT22;47267;48.130;-2.040;2023-03-23T10:53:25;19.90;52.10
61398;DHT22;47267;48.130;-2.040;2023-03-23T10:55:53;19.90;52.20
61398;DHT22;47267;48.130;-2.040;2023-03-23T10:58:27;19.90;52.10
61398;DHT22;47267;48.130;-2.040;2023-03-23T11:00:55;19.90;52.10
61398;DHT22;47267;48.130;-2.040;2023-03-23T11:06:00;19.90;52.20
61398;DHT22;47267;48.130;-2.040;2023-03-23T11:08:34;20.00;52.20
61398;DHT22;47267;48.130;-2.040;2023-03-23T11:13:46;20.00;52.20
61398;DHT22;47267;48.130;-2.040;2023-03-23T11:16:25;20.00;52.20
61398;DHT22;47267;48.130;-2.040;2023-03-23T11:18:53;20.00;52.20
61398;DHT22;47267;48.130;-2.040;2023-03-23T11:21:21;20.00;52.20
61398;DHT22;47267;48.130;-2.040;2023-03-23T11:23:54;20.00;52.30
61398;DHT22;47267;48.130;-2.040;2023-03-23T11:26:32;20.00;52.20
61398;DHT22;47267;48.130;-2.040;2023-03-23T11:29:22;20.00;52.20
61398;DHT22;47267;48.130;-2.040;2023-03-23T11:31:51;20.00;52.30
61398;DHT22;47267;48.130;-2.040;2023-03-23T11:34:36;20.00;52.20
61398;DHT22;47267;48.130;-2.040;2023-03-23T11:39:58;20.00;52.20
61398;DHT22;47267;48.130;-2.040;2023-03-23T11:45:19;20.00;52.20
61398;DHT22;47267;48.130;-2.040;2023-03-23T11:47:59;20.00;52.20
61398;DHT22;47267;48.130;-2.040;2023-03-23T11:50:50;20.00;52.20
61398;DHT22;47267;48.130;-2.040;2023-03-23T11:53:33;20.00;52.20
61398;DHT22;47267;48.130;-2.040;2023-03-23T11:56:30;20.00;52.20
61398;DHT22;47267;48.130;-2.040;2023-03-23T11:58:58;20.00;52.20
61398;DHT22;47267;48.130;-2.040;2023-03-23T12:12:11;20.00;52.20
61398;DHT22;47267;48.130;-2.040;2023-03-23T12:22:46;20.00;52.20
61398;DHT22;47267;48.130;-2.040;2023-03-23T12:30:35;20.00;52.20
61398;DHT22;47267;48.130;-2.040;2023-03-23T12:33:22;20.00;52.20
61398;DHT22;47267;48.130;-2.040;2023-03-23T12:38:25;20.00;52.20
61398;DHT22;47267;48.130;-2.040;2023-03-23T12:41:22;20.00;52.20
61398;DHT22;47267;48.130;-2.040;2023-03-23T12:43:52;20.00;52.20
61398;DHT22;47267;48.130;-2.040;2023-03-23T12:46:54;19.90;52.20
61398;DHT22;47267;48.130;-2.040;2023-03-23T12:49:30;19.90;52.20
61398;DHT22;47267;48.130;-2.040;2023-03-23T13:03:02;19.90;52.10
61398;DHT22;47267;48.130;-2.040;2023-03-23T13:05:46;19.90;52.20
61398;DHT22;47267;48.130;-2.040;2023-03-23T13:08:23;19.90;52.20
61398;DHT22;47267;48.130;-2.040;2023-03-23T13:10:54;19.90;52.20
61398;DHT22;47267;48.130;-2.040;2023-03-23T13:13:25;19.90;52.20
61398;DHT22;47267;48.130;-2.040;2023-03-23T13:15:54;19.90;52.20
61398;DHT22;47267;48.130;-2.040;2023-03-23T13:21:25;19.90;52.80
61398;DHT22;47267;48.130;-2.040;2023-03-23T13:24:14;19.90;52.20
61398;DHT22;47267;48.130;-2.040;2023-03-23T13:26:41;19.90;52.30
61398;DHT22;47267;48.130;-2.040;2023-03-23T13:29:18;19.90;52.20
61398;DHT22;47267;48.130;-2.040;2023-03-23T13:31:46;19.90;52.20
61398;DHT22;47267;48.130;-2.040;2023-03-23T13:34:20;19.90;52.30
61398;DHT22;47267;48.130;-2.040;2023-03-23T13:37:05;19.80;52.20
61398;DHT22;47267;48.130;-2.040;2023-03-23T13:39:56;19.80;52.20
61398;DHT22;47267;48.130;-2.040;2023-03-23T13:42:26;19.80;52.20
61398;DHT22;47267;48.130;-2.040;2023-03-23T13:45:22;19.80;52.20
61398;DHT22;47267;48.130;-2.040;2023-03-23T13:47:50;19.80;52.20
61398;DHT22;47267;48.130;-2.040;2023-03-23T13:50:29;19.80;52.20
61398;DHT22;47267;48.130;-2.040;2023-03-23T13:53:12;19.80;52.20
61398;DHT22;47267;48.130;-2.040;2023-03-23T13:55:49;19.80;52.20
61398;DHT22;47267;48.130;-2.040;2023-03-23T13:58:24;19.80;52.20
61398;DHT22;47267;48.130;-2.040;2023-03-23T14:01:09;19.80;52.20
61398;DHT22;47267;48.130;-2.040;2023-03-23T14:03:38;19.70;52.20
61398;DHT22;47267;48.130;-2.040;2023-03-23T14:06:13;19.70;52.20
61398;DHT22;47267;48.130;-2.040;2023-03-23T14:08:43;19.70;52.20
61398;DHT22;47267;48.130;-2.040;2023-03-23T14:11:24;19.70;52.20
61398;DHT22;47267;48.130;-2.040;2023-03-23T14:16:40;19.70;52.20
61398;DHT22;47267;48.130;-2.040;2023-03-23T14:21:55;19.70;52.20
61398;DHT22;47267;48.130;-2.040;2023-03-23T14:24:24;19.70;52.20
61398;DHT22;47267;48.130;-2.040;2023-03-23T14:26:52;19.70;52.20
61398;DHT22;47267;48.130;-2.040;2023-03-23T14:29:20;19.60;52.20
61398;DHT22;47267;48.130;-2.040;2023-03-23T14:31:52;19.60;52.10
61398;DHT22;47267;48.130;-2.040;2023-03-23T14:34:21;19.60;52.20
61398;DHT22;47267;48.130;-2.040;2023-03-23T14:36:48;19.60;52.20
61398;DHT22;47267;48.130;-2.040;2023-03-23T14:39:21;19.60;52.20
61398;DHT22;47267;48.130;-2.040;2023-03-23T14:41:47;19.60;52.20
61398;DHT22;47267;48.130;-2.040;2023-03-23T14:44:21;19.60;52.20
61398;DHT22;47267;48.130;-2.040;2023-03-23T14:46:47;19.60;52.20
61398;DHT22;47267;48.130;-2.040;2023-03-23T14:49:16;19.60;52.20
61398;DHT22;47267;48.130;-2.040;2023-03-23T14:51:51;19.60;52.20
61398;DHT22;47267;48.130;-2.040;2023-03-23T14:54:22;19.60;52.20
61398;DHT22;47267;48.130;-2.040;2023-03-23T14:56:47;19.60;52.20
61398;DHT22;47267;48.130;-2.040;2023-03-23T14:59:13;19.60;52.20
61398;DHT22;47267;48.130;-2.040;2023-03-23T15:01:41;19.60;52.20
61398;DHT22;47267;48.130;-2.040;2023-03-23T15:06:42;19.60;52.20
61398;DHT22;47267;48.130;-2.040;2023-03-23T15:09:15;19.60;52.20
61398;DHT22;47267;48.130;-2.040;2023-03-23T15:11:49;19.60;52.20
61398;DHT22;47267;48.130;-2.040;2023-03-23T15:14:21;19.60;52.30
61398;DHT22;47267;48.130;-2.040;2023-03-23T15:16:49;19.50;52.20
61398;DHT22;47267;48.130;-2.040;2023-03-23T15:19:24;19.50;52.20
61398;DHT22;47267;48.130;-2.040;2023-03-23T15:21:54;19.50;52.20
61398;DHT22;47267;48.130;-2.040;2023-03-23T15:24:36;19.50;52.30
61398;DHT22;47267;48.130;-2.040;2023-03-23T15:29:30;19.50;52.30
61398;DHT22;47267;48.130;-2.040;2023-03-23T15:31:55;19.50;52.30
61398;DHT22;47267;48.130;-2.040;2023-03-23T15:34:27;19.50;52.30
61398;DHT22;47267;48.130;-2.040;2023-03-23T15:37:05;19.50;52.30
61398;DHT22;47267;48.130;-2.040;2023-03-23T15:39:32;19.50;52.30
61398;DHT22;47267;48.130;-2.040;2023-03-23T15:41:59;19.50;52.40
61398;DHT22;47267;48.130;-2.040;2023-03-23T15:44:32;19.50;52.30
61398;DHT22;47267;48.130;-2.040;2023-03-23T15:49:29;19.50;52.30
61398;DHT22;47267;48.130;-2.040;2023-03-23T15:51:55;19.50;52.40
61398;DHT22;47267;48.130;-2.040;2023-03-23T15:54:21;19.50;52.40
61398;DHT22;47267;48.130;-2.040;2023-03-23T15:56:47;19.50;52.40
61398;DHT22;47267;48.130;-2.040;2023-03-23T15:59:12;19.50;52.40
61398;DHT22;47267;48.130;-2.040;2023-03-23T16:01:40;19.50;52.50
61398;DHT22;47267;48.130;-2.040;2023-03-23T16:04:13;19.50;52.50
61398;DHT22;47267;48.130;-2.040;2023-03-23T16:06:41;19.50;52.50
61398;DHT22;47267;48.130;-2.040;2023-03-23T16:09:15;19.50;52.50
61398;DHT22;47267;48.130;-2.040;2023-03-23T16:11:42;19.50;52.50
61398;DHT22;47267;48.130;-2.040;2023-03-23T16:14:08;19.50;52.50
61398;DHT22;47267;48.130;-2.040;2023-03-23T16:16:37;19.50;52.50
61398;DHT22;47267;48.130;-2.040;2023-03-23T16:19:03;19.50;52.50
61398;DHT22;47267;48.130;-2.040;2023-03-23T16:21:30;19.50;52.60
61398;DHT22;47267;48.130;-2.040;2023-03-23T16:23:56;19.50;52.50
61398;DHT22;47267;48.130;-2.040;2023-03-23T16:26:22;19.60;52.60
61398;DHT22;47267;48.130;-2.040;2023-03-23T16:28:48;19.50;53.20
61398;DHT22;47267;48.130;-2.040;2023-03-23T16:31:14;19.60;52.60
61398;DHT22;47267;48.130;-2.040;2023-03-23T16:33:40;19.60;52.60
61398;DHT22;47267;48.130;-2.040;2023-03-23T16:36:06;19.60;52.60
61398;DHT22;47267;48.130;-2.040;2023-03-23T16:38:32;19.60;52.60
61398;DHT22;47267;48.130;-2.040;2023-03-23T16:40:57;19.60;52.70
61398;DHT22;47267;48.130;-2.040;2023-03-23T16:43:24;19.60;52.70
61398;DHT22;47267;48.130;-2.040;2023-03-23T16:45:54;19.60;52.70
61398;DHT22;47267;48.130;-2.040;2023-03-23T16:48:20;19.60;52.60
61398;DHT22;47267;48.130;-2.040;2023-03-23T16:50:46;19.60;52.60
61398;DHT22;47267;48.130;-2.040;2023-03-23T16:53:12;19.60;52.70
61398;DHT22;47267;48.130;-2.040;2023-03-23T16:55:38;19.60;52.70
61398;DHT22;47267;48.130;-2.040;2023-03-23T16:58:05;19.60;52.70
61398;DHT22;47267;48.130;-2.040;2023-03-23T17:00:31;19.70;53.20
61398;DHT22;47267;48.130;-2.040;2023-03-23T17:02:57;19.60;52.70
61398;DHT22;47267;48.130;-2.040;2023-03-23T17:05:25;19.70;52.70
61398;DHT22;47267;48.130;-2.040;2023-03-23T17:07:52;19.60;52.70
61398;DHT22;47267;48.130;-2.040;2023-03-23T17:10:20;19.70;52.70
61398;DHT22;47267;48.130;-2.040;2023-03-23T17:12:47;19.70;52.80
61398;DHT22;47267;48.130;-2.040;2023-03-23T17:15:13;19.70;52.80
61398;DHT22;47267;48.130;-2.040;2023-03-23T17:17:38;19.70;52.70